Time;durP1;ratioP1;P1;durP2;ratioP2;P2;SDS_P1;SDS_P2;PMS_P1;PMS_P2;Temp;Humidity;BMP_temperature;BMP_pressure;BME280_temperature;BME280_humidity;BME280_pressure;Samples;Min_cycle;Max_cycle;Signal;HPM_P1;HPM_P2
2022/10/21 04:32:52;;;;;;;;;2.75;2.75;;;;;17.44;84.16;100188.97;5137977;27;45922;-73
2022/10/21 04:35:18;;;;;;;;;4.75;4.00;;;;;17.52;84.17;100211.75;5139666;27;45276;-74
2022/10/21 04:37:43;;;;;;;;;3.75;3.75;;;;;17.48;84.40;100188.56;5106736;27;45305;-74
2022/10/21 04:40:09;;;;;;;;;2.75;2.75;;;;;17.55;83.96;100211.47;5139689;27;45196;-72
2022/10/21 04:42:34;;;;;;;;;6.25;4.25;;;;;17.48;84.07;100207.56;5106914;27;47455;-73
2022/10/21 04:44:59;;;;;;;;;4.50;3.75;;;;;17.51;84.15;100209.16;5138885;27;45285;-74
2022/10/21 04:47:25;;;;;;;;;4.00;4.00;;;;;17.55;84.62;100210.59;5138953;27;45421;-73
2022/10/21 04:49:50;;;;;;;;;5.25;5.00;;;;;17.54;84.67;100217.88;5138618;27;45295;-72
2022/10/21 04:52:15;;;;;;;;;6.50;4.75;;;;;17.58;84.68;100207.66;5106095;27;45998;-73
2022/10/21 04:54:41;;;;;;;;;6.75;3.25;;;;;17.57;84.67;100201.38;5138786;27;45409;-74
2022/10/21 04:57:06;;;;;;;;;4.00;4.00;;;;;17.60;84.71;100206.53;5135861;27;45368;-73
2022/10/21 04:59:31;;;;;;;;;6.50;6.50;;;;;17.56;84.60;100188.78;5117873;27;45595;-74
2022/10/21 05:01:57;;;;;;;;;5.75;5.00;;;;;17.62;84.64;100206.41;5118025;27;45309;-75
2022/10/21 05:04:22;;;;;;;;;5.25;3.75;;;;;17.53;84.80;100196.31;5118046;27;45381;-73
2022/10/21 05:06:47;;;;;;;;;6.50;5.00;;;;;17.50;84.73;100185.75;5133581;27;45424;-74
2022/10/21 05:09:13;;;;;;;;;5.00;5.00;;;;;17.55;84.76;100188.91;5138721;27;45372;-73
2022/10/21 05:11:38;;;;;;;;;5.00;5.00;;;;;17.56;85.10;100183.38;5138543;27;46220;-78
2022/10/21 05:14:03;;;;;;;;;6.25;4.75;;;;;17.67;85.01;100196.94;5139110;27;45434;-73
2022/10/21 05:16:29;;;;;;;;;4.75;3.25;;;;;17.69;85.23;100213.91;5138785;27;45367;-74
2022/10/21 05:18:54;;;;;;;;;7.75;6.00;;;;;17.67;84.41;100207.78;5138331;27;45477;-74
2022/10/21 05:21:19;;;;;;;;;8.75;5.00;;;;;17.72;84.56;100224.50;5119239;27;45425;-73
2022/10/21 05:23:45;;;;;;;;;8.50;5.75;;;;;17.73;84.64;100225.38;5117741;27;45517;-75
2022/10/21 05:26:10;;;;;;;;;4.25;4.00;;;;;17.66;84.41;100221.47;5117567;27;45481;-74
2022/10/21 05:28:36;;;;;;;;;7.25;6.25;;;;;17.72;84.53;100232.63;5117532;27;45437;-73
2022/10/21 05:31:01;;;;;;;;;6.25;3.25;;;;;17.73;84.49;100236.22;5121885;27;45578;-73
2022/10/21 05:33:27;;;;;;;;;5.00;5.00;;;;;17.74;84.57;100227.97;5116073;27;45237;-73
2022/10/21 05:36:06;;;;;;;;;5.00;4.00;;;;;17.71;84.52;100211.06;5116246;27;45310;-73
2022/10/21 05:38:32;;;;;;;;;5.00;4.25;;;;;17.78;84.21;100218.56;5117132;27;45620;-73
2022/10/21 05:40:58;;;;;;;;;4.00;4.00;;;;;17.82;84.02;100210.19;5117317;27;45365;-75
2022/10/21 05:43:24;;;;;;;;;5.25;4.25;;;;;17.80;84.06;100213.00;5117195;27;45408;-73
2022/10/21 05:45:50;;;;;;;;;2.00;2.00;;;;;17.80;84.25;100212.16;5117531;27;45321;-73
2022/10/21 05:48:19;;;;;;;;;4.00;4.00;;;;;17.72;83.85;100207.38;5116986;27;45647;-72
2022/10/21 05:50:45;;;;;;;;;4.00;4.00;;;;;17.84;83.70;100230.75;5117130;27;46196;-70
2022/10/21 05:53:12;;;;;;;;;4.00;4.00;;;;;17.88;84.11;100226.78;5116954;27;45782;-71
2022/10/21 05:55:37;;;;;;;;;5.00;2.75;;;;;17.91;84.89;100229.25;5117312;27;45421;-72
2022/10/21 05:58:03;;;;;;;;;6.00;6.00;;;;;17.91;84.45;100237.38;5117016;27;45582;-72
2022/10/21 06:00:28;;;;;;;;;7.50;6.00;;;;;17.96;84.19;100254.13;5135984;27;46226;-70
2022/10/21 06:02:54;;;;;;;;;5.00;5.00;;;;;17.92;84.16;100254.53;5140126;27;45371;-75
2022/10/21 06:05:20;;;;;;;;;4.75;4.75;;;;;17.96;83.79;100264.09;5121842;27;45497;-72
2022/10/21 06:07:45;;;;;;;;;4.00;4.00;;;;;18.03;83.61;100277.03;5117955;27;45659;-75
2022/10/21 06:10:11;;;;;;;;;4.50;4.00;;;;;18.04;83.28;100289.59;5117147;27;45495;-73
2022/10/21 06:12:36;;;;;;;;;5.75;5.25;;;;;18.00;83.50;100299.00;5116615;27;45292;-73
2022/10/21 06:15:02;;;;;;;;;4.25;4.25;;;;;18.06;83.71;100325.59;5117041;27;45346;-75
2022/10/21 06:17:27;;;;;;;;;4.00;4.00;;;;;18.06;83.12;100314.75;5116853;27;45325;-69
2022/10/21 06:19:52;;;;;;;;;3.50;3.50;;;;;18.04;82.32;100305.00;5120656;27;45730;-70
2022/10/21 06:22:18;;;;;;;;;5.00;4.00;;;;;17.99;83.41;100302.69;5117008;27;45316;-71
2022/10/21 06:24:44;;;;;;;;;5.25;4.00;;;;;18.05;83.30;100310.31;5116372;27;45328;-69
2022/10/21 06:27:10;;;;;;;;;7.00;5.00;;;;;18.02;82.85;100313.31;5116691;27;45499;-71
2022/10/21 06:29:35;;;;;;;;;4.00;4.00;;;;;17.98;82.90;100300.97;5116293;27;46053;-70
2022/10/21 06:32:01;;;;;;;;;5.00;5.00;;;;;17.96;82.89;100313.78;5122102;27;45335;-78
2022/10/21 06:34:26;;;;;;;;;5.75;3.50;;;;;17.97;82.40;100334.50;5116392;27;45563;-76
2022/10/21 06:36:51;;;;;;;;;5.50;4.25;;;;;17.88;82.25;100337.09;5116617;27;45513;-74
2022/10/21 06:39:17;;;;;;;;;5.25;3.25;;;;;17.94;82.43;100350.19;5118154;27;45977;-72
2022/10/21 06:41:42;;;;;;;;;5.25;5.00;;;;;17.77;82.38;100316.31;5128101;27;45350;-74
2022/10/21 06:44:07;;;;;;;;;6.00;4.75;;;;;17.82;82.54;100335.78;5116015;27;45483;-73
2022/10/21 06:46:33;;;;;;;;;3.00;3.00;;;;;17.86;83.16;100345.41;5116483;27;45532;-71
2022/10/21 06:48:58;;;;;;;;;8.00;6.25;;;;;17.85;83.89;100331.97;5115750;27;46200;-73
2022/10/21 06:51:24;;;;;;;;;4.00;4.00;;;;;17.84;84.17;100341.09;5116669;27;45329;-75
2022/10/21 06:53:55;;;;;;;;;4.50;3.25;;;;;17.83;83.66;100342.06;5116158;27;45316;-76
2022/10/21 06:56:21;;;;;;;;;3.75;3.75;;;;;17.77;83.42;100330.75;5116356;27;45378;-74
2022/10/21 06:58:48;;;;;;;;;4.75;4.00;;;;;17.85;84.12;100342.81;5123905;27;45332;-73
2022/10/21 07:01:17;;;;;;;;;5.00;5.00;;;;;17.92;84.03;100355.72;5125315;27;45333;-74
2022/10/21 07:03:42;;;;;;;;;2.75;2.75;;;;;17.88;84.01;100342.53;5133751;27;45263;-74
2022/10/21 07:06:08;;;;;;;;;3.25;3.00;;;;;17.86;84.07;100333.69;5114998;27;45507;-74
2022/10/21 07:08:34;;;;;;;;;3.75;3.25;;;;;17.91;84.11;100345.00;5122831;27;46266;-74
2022/10/21 07:10:59;;;;;;;;;6.50;4.00;;;;;17.89;84.48;100344.25;5126818;27;45357;-74
2022/10/21 07:13:25;;;;;;;;;2.50;2.50;;;;;17.86;84.37;100348.13;5132479;27;45332;-74
2022/10/21 07:16:01;;;;;;;;;4.00;4.00;;;;;17.88;83.18;100361.53;5125490;27;45434;-73
2022/10/21 07:18:26;;;;;;;;;8.25;4.00;;;;;17.84;83.27;100360.06;5136032;27;45422;-73
2022/10/21 07:20:52;;;;;;;;;4.75;4.75;;;;;17.85;82.91;100378.06;5121344;27;45474;-73
2022/10/21 07:23:17;;;;;;;;;3.50;3.50;;;;;17.87;83.21;100400.47;5129146;27;45340;-73
2022/10/21 07:25:43;;;;;;;;;5.00;5.00;;;;;17.75;83.25;100400.50;5116301;27;45420;-74
2022/10/21 07:28:08;;;;;;;;;4.00;4.00;;;;;17.74;84.14;100400.63;5115885;27;45515;-73
2022/10/21 07:30:41;;;;;;;;;4.50;4.50;;;;;17.73;84.13;100388.91;5118210;27;45418;-74
2022/10/21 07:33:07;;;;;;;;;4.75;4.75;;;;;17.74;84.43;100382.50;5117411;27;45442;-71
2022/10/21 07:35:32;;;;;;;;;4.25;4.25;;;;;17.70;83.58;100383.72;5114680;27;45384;-71
2022/10/21 07:37:57;;;;;;;;;3.00;3.00;;;;;17.70;83.15;100402.72;5121329;27;46042;-71
2022/10/21 07:40:23;;;;;;;;;4.00;3.00;;;;;17.54;83.87;100391.34;5126623;27;45435;-71
2022/10/21 07:42:48;;;;;;;;;6.00;4.50;;;;;17.66;84.01;100420.22;5135815;27;45326;-71
2022/10/21 07:45:13;;;;;;;;;5.25;5.00;;;;;17.65;84.05;100404.06;5135707;27;45480;-72
2022/10/21 07:47:39;;;;;;;;;4.00;3.00;;;;;17.56;84.04;100394.81;5135719;27;46280;-75
2022/10/21 07:50:04;;;;;;;;;2.75;2.75;;;;;17.62;84.44;100386.19;5135576;27;45360;-74
2022/10/21 07:52:30;;;;;;;;;4.50;2.75;;;;;17.69;84.96;100408.28;5135655;27;45307;-72
2022/10/21 07:54:55;;;;;;;;;4.25;1.25;;;;;17.72;84.36;100399.88;5135246;27;45464;-72
2022/10/21 07:57:20;;;;;;;;;3.00;3.00;;;;;17.79;84.04;100417.38;5132946;27;46350;-71
2022/10/21 07:59:46;;;;;;;;;2.00;1.75;;;;;17.80;83.05;100418.22;5118888;27;45399;-71
2022/10/21 08:02:13;;;;;;;;;4.00;2.00;;;;;17.77;83.40;100411.22;5128126;27;45353;-71
2022/10/21 08:04:39;;;;;;;;;3.25;2.75;;;;;17.76;83.46;100420.34;5109111;27;46439;-69
2022/10/21 08:07:05;;;;;;;;;1.25;1.25;;;;;17.78;83.29;100418.34;5125460;27;45345;-70
2022/10/21 08:09:30;;;;;;;;;2.00;2.00;;;;;17.77;83.09;100425.66;5131822;27;45244;-71
2022/10/21 08:11:56;;;;;;;;;2.25;2.25;;;;;17.69;82.94;100421.84;5139362;27;45472;-69
2022/10/21 08:14:21;;;;;;;;;3.50;2.00;;;;;17.68;83.47;100426.38;5139081;27;46710;-71
2022/10/21 08:16:51;;;;;;;;;2.25;2.25;;;;;17.68;83.57;100420.97;5134651;27;46095;-71
2022/10/21 08:19:18;;;;;;;;;1.00;1.00;;;;;17.79;83.53;100414.66;5119273;27;45520;-72
2022/10/21 08:21:44;;;;;;;;;2.00;2.00;;;;;17.83;83.29;100431.56;5120459;27;45381;-73
2022/10/21 08:24:09;;;;;;;;;2.25;2.25;;;;;17.78;83.60;100418.34;5117242;27;45353;-69
2022/10/21 08:26:34;;;;;;;;;2.00;2.00;;;;;17.82;83.67;100425.25;5117035;27;56952;-71
2022/10/21 08:29:02;;;;;;;;;1.50;1.50;;;;;17.77;83.64;100420.22;5127474;27;45258;-69
2022/10/21 08:31:27;;;;;;;;;2.50;2.50;;;;;17.87;83.75;100424.88;5123713;27;45461;-70
2022/10/21 08:33:54;;;;;;;;;3.00;2.25;;;;;17.77;83.83;100406.66;5117094;27;45437;-71
2022/10/21 08:36:21;;;;;;;;;1.00;1.00;;;;;17.86;83.80;100423.19;5118016;27;45472;-73
2022/10/21 08:38:48;;;;;;;;;2.50;2.50;;;;;17.86;84.36;100434.91;5117589;27;45433;-72
2022/10/21 08:41:28;;;;;;;;;4.75;3.00;;;;;17.83;83.89;100429.72;5135892;27;45368;-71
2022/10/21 08:44:26;;;;;;;;;3.25;3.25;;;;;17.85;84.12;100427.75;5138383;27;45444;-73
2022/10/21 08:47:13;;;;;;;;;2.50;2.25;;;;;17.90;84.00;100427.34;5138262;27;45332;-73
2022/10/21 08:50:17;;;;;;;;;4.00;3.50;;;;;17.88;84.42;100432.91;5139985;27;45550;-72
2022/10/21 08:52:54;;;;;;;;;3.75;3.75;;;;;17.86;84.38;100426.75;5096981;27;45504;-73
2022/10/21 08:55:34;;;;;;;;;0.00;0.00;;;;;17.99;84.40;100445.59;5116918;27;45904;-73
2022/10/21 08:58:00;;;;;;;;;5.25;4.00;;;;;18.08;84.94;100440.28;5124328;27;45935;-73
2022/10/21 09:00:38;;;;;;;;;3.25;3.25;;;;;18.16;84.05;100436.94;5133965;27;45440;-72
2022/10/21 09:03:36;;;;;;;;;4.00;3.75;;;;;18.29;84.03;100434.09;5138383;27;45364;-72
2022/10/21 09:06:07;;;;;;;;;4.00;4.00;;;;;18.38;83.57;100431.44;5126169;27;45499;-70
2022/10/21 09:08:40;;;;;;;;;2.75;2.75;;;;;18.39;82.95;100429.59;5128314;27;45438;-72
2022/10/21 09:11:24;;;;;;;;;8.00;7.00;;;;;18.51;83.01;100432.16;5117141;27;45558;-73
2022/10/21 09:14:31;;;;;;;;;3.50;3.50;;;;;18.60;82.81;100438.72;5117813;27;45285;-71
2022/10/21 09:17:04;;;;;;;;;3.00;3.00;;;;;18.55;82.01;100405.59;5122861;27;45549;-76
2022/10/21 09:19:52;;;;;;;;;3.25;3.25;;;;;18.82;81.33;100440.47;5134677;27;45476;-72
2022/10/21 09:22:21;;;;;;;;;5.00;4.00;;;;;18.83;80.98;100434.91;5101218;27;45509;-72
2022/10/21 09:25:22;;;;;;;;;3.00;3.00;;;;;18.82;80.98;100425.03;5117308;27;45429;-71
2022/10/21 09:27:48;;;;;;;;;5.00;3.50;;;;;18.88;80.37;100429.09;5116778;27;45520;-71
2022/10/21 09:30:17;;;;;;;;;4.25;3.25;;;;;18.97;80.13;100433.72;5117311;27;45404;-72
2022/10/21 09:32:50;;;;;;;;;3.00;3.00;;;;;19.04;80.22;100431.34;5131353;27;45405;-72
2022/10/21 09:35:21;;;;;;;;;4.50;4.25;;;;;19.14;79.63;100429.56;5137716;27;45377;-72
2022/10/21 09:37:49;;;;;;;;;5.00;3.50;;;;;19.21;79.11;100422.59;5136964;27;45233;-71
2022/10/21 09:40:21;;;;;;;;;4.00;4.00;;;;;19.27;79.45;100427.50;5120862;27;45498;-72
2022/10/21 09:42:50;;;;;;;;;3.00;3.00;;;;;19.28;78.80;100404.75;5131221;27;45413;-72
2022/10/21 09:45:18;;;;;;;;;3.75;3.75;;;;;19.37;78.33;100424.84;5137778;27;45356;-72
2022/10/21 09:47:46;;;;;;;;;3.75;3.00;;;;;19.34;78.19;100423.25;5123167;27;45561;-72
2022/10/21 09:50:16;;;;;;;;;5.75;5.25;;;;;19.33;79.06;100435.09;5137679;27;45237;-72
2022/10/21 09:52:52;;;;;;;;;4.00;4.00;;;;;19.35;78.64;100433.13;5130726;27;45481;-71
2022/10/21 09:55:17;;;;;;;;;3.50;3.50;;;;;19.39;78.85;100425.56;5132936;27;45549;-72
2022/10/21 09:58:00;;;;;;;;;3.75;3.75;;;;;19.44;78.33;100432.31;5129360;27;45372;-71
2022/10/21 10:00:46;;;;;;;;;4.75;0.50;;;;;19.45;78.19;100442.19;5116645;27;45302;-72
2022/10/21 10:03:27;;;;;;;;;4.50;4.50;;;;;19.41;78.15;100442.59;5117108;27;45324;-71
2022/10/21 10:05:52;;;;;;;;;4.50;4.50;;;;;19.39;78.57;100441.88;5116633;27;45430;-73
2022/10/21 10:08:20;;;;;;;;;11.25;11.25;;;;;19.35;79.24;100430.41;5116242;27;45461;-75
2022/10/21 10:10:45;;;;;;;;;4.00;4.00;;;;;19.45;77.47;100438.63;5120731;27;45591;-78
2022/10/21 10:13:17;;;;;;;;;5.50;5.00;;;;;19.46;77.17;100443.06;5120220;27;45408;-75
2022/10/21 10:15:42;;;;;;;;;3.25;3.00;;;;;19.44;77.06;100442.34;5139457;27;45235;-70
2022/10/21 10:18:21;;;;;;;;;8.00;4.75;;;;;19.47;77.60;100445.69;5137419;27;45321;-73
2022/10/21 10:21:16;;;;;;;;;7.25;3.25;;;;;19.44;77.04;100434.19;5122274;27;45378;-71
2022/10/21 10:23:51;;;;;;;;;4.50;4.50;;;;;19.44;75.51;100426.88;5122770;27;45464;-72
2022/10/21 10:26:22;;;;;;;;;4.75;4.50;;;;;19.55;76.00;100440.44;5136576;27;45342;-71
2022/10/21 10:28:51;;;;;;;;;5.25;5.25;;;;;19.54;75.43;100424.25;5136475;27;45376;-79
2022/10/21 10:31:48;;;;;;;;;6.50;6.50;;;;;19.73;75.12;100446.13;5114854;27;46496;-79
2022/10/21 10:34:20;;;;;;;;;3.50;3.50;;;;;19.83;74.96;100433.38;5114663;27;45485;-79
2022/10/21 10:36:47;;;;;;;;;9.75;5.50;;;;;19.95;75.01;100436.88;5124358;27;45353;-77
2022/10/21 10:39:25;;;;;;;;;5.75;4.00;;;;;20.04;74.26;100419.72;5117821;27;46628;-78
2022/10/21 10:41:51;;;;;;;;;7.25;6.50;;;;;20.12;73.26;100419.03;5108450;27;47629;-76
2022/10/21 10:44:37;;;;;;;;;7.25;3.25;;;;;20.33;71.43;100436.97;5133265;27;45431;-74
2022/10/21 10:47:05;;;;;;;;;6.50;4.75;;;;;20.45;69.03;100436.91;5136955;27;45471;-71
2022/10/21 10:49:40;;;;;;;;;4.25;3.50;;;;;20.52;67.33;100430.75;5136363;27;45654;-71
2022/10/21 10:52:05;;;;;;;;;4.25;4.25;;;;;20.66;66.78;100435.78;5133695;27;46300;-68
2022/10/21 10:54:31;;;;;;;;;3.00;3.00;;;;;20.84;66.38;100426.91;5114398;27;45425;-70
2022/10/21 10:57:03;;;;;;;;;4.50;2.50;;;;;21.24;65.96;100434.94;5116642;27;45371;-71
2022/10/21 10:59:37;;;;;;;;;5.00;2.75;;;;;21.75;63.32;100438.09;5135883;27;45492;-71
2022/10/21 11:02:09;;;;;;;;;2.00;2.00;;;;;22.19;60.95;100427.44;5135923;27;46363;-70
2022/10/21 11:04:46;;;;;;;;;1.50;1.00;;;;;22.55;61.07;100418.25;5125661;27;45410;-70
2022/10/21 11:07:30;;;;;;;;;3.75;3.25;;;;;23.08;60.23;100419.28;5115420;27;45399;-70
2022/10/21 11:10:04;;;;;;;;;4.25;4.25;;;;;23.64;57.95;100418.88;5115504;27;45383;-71
2022/10/21 11:12:30;;;;;;;;;0.75;0.75;;;;;24.13;55.00;100406.28;5115771;27;46964;-70
2022/10/21 11:14:58;;;;;;;;;2.75;2.75;;;;;24.67;53.81;100423.25;5115299;27;45541;-70
2022/10/21 11:17:32;;;;;;;;;3.50;2.25;;;;;25.18;51.20;100420.19;5115514;27;45173;-70
2022/10/21 11:20:00;;;;;;;;;3.75;2.75;;;;;25.79;48.56;100417.88;5119722;27;45230;-71
2022/10/21 11:22:51;;;;;;;;;4.75;3.00;;;;;25.91;48.12;100405.50;5125432;27;45332;-71
2022/10/21 11:25:33;;;;;;;;;5.00;3.25;;;;;26.48;47.40;100406.09;5115978;27;45337;-72
2022/10/21 11:28:36;;;;;;;;;6.00;4.00;;;;;27.10;45.64;100417.03;5115852;27;45498;-71
2022/10/21 11:31:23;;;;;;;;;2.25;1.00;;;;;27.30;43.42;100418.22;5120874;27;45286;-70
2022/10/21 11:33:59;;;;;;;;;3.00;1.00;;;;;27.04;42.44;100417.78;5115274;27;45531;-69
2022/10/21 11:37:05;;;;;;;;;4.00;1.50;;;;;27.10;42.97;100425.28;5115625;27;45290;-71
2022/10/21 11:39:43;;;;;;;;;3.00;3.00;;;;;27.57;41.77;100430.53;5114530;27;45438;-71
2022/10/21 11:42:24;;;;;;;;;4.25;1.00;;;;;27.85;40.72;100428.00;5115346;27;45559;-72
2022/10/21 11:45:11;;;;;;;;;2.00;1.00;;;;;27.64;41.90;100431.53;5122537;27;45383;-69
2022/10/21 11:47:48;;;;;;;;;1.75;1.00;;;;;27.41;39.75;100428.78;5135362;27;45377;-73
2022/10/21 11:50:24;;;;;;;;;5.00;1.00;;;;;27.40;39.42;100426.19;5114713;27;45600;-71
2022/10/21 11:53:10;;;;;;;;;4.50;2.00;;;;;27.33;39.92;100423.34;5127536;27;45231;-72
2022/10/21 11:56:03;;;;;;;;;1.00;1.00;;;;;26.99;39.21;100412.81;5118723;27;46152;-72
2022/10/21 11:59:03;;;;;;;;;3.75;2.50;;;;;27.29;38.83;100418.41;5124909;27;45246;-70
2022/10/21 12:01:46;;;;;;;;;3.50;2.00;;;;;27.99;38.56;100409.75;5105222;27;45504;-70
2022/10/21 12:04:23;;;;;;;;;2.00;2.00;;;;;28.62;35.81;100414.63;5128396;27;45460;-70
2022/10/21 12:07:11;;;;;;;;;2.75;1.00;;;;;29.05;35.63;100407.22;5118091;27;45443;-71
2022/10/21 12:10:29;;;;;;;;;2.00;2.00;;;;;29.19;34.99;100400.75;5113393;27;45367;-71
2022/10/21 12:13:00;;;;;;;;;2.75;1.75;;;;;29.57;33.85;100408.75;5005939;28;45456;-74
2022/10/21 12:15:37;;;;;;;;;1.25;0.75;;;;;29.92;33.88;100399.41;5123005;27;45993;-72
2022/10/21 12:18:04;;;;;;;;;4.33;0.67;;;;;29.57;33.79;100403.22;5114241;27;46441;-72
2022/10/21 12:20:32;;;;;;;;;1.33;0.00;;;;;29.71;34.41;100396.72;5118338;27;45300;-73
2022/10/21 12:23:04;;;;;;;;;3.00;1.00;;;;;29.09;34.25;100400.28;5116123;27;45340;-72
2022/10/21 12:25:56;;;;;;;;;2.25;1.00;;;;;28.49;35.58;100392.41;5135132;27;45452;-72
2022/10/21 12:28:39;;;;;;;;;2.25;1.00;;;;;28.74;35.82;100385.47;5114764;27;46440;-74
2022/10/21 12:31:16;;;;;;;;;4.75;1.00;;;;;28.84;35.32;100385.16;5120463;27;45377;-71
2022/10/21 12:33:43;;;;;;;;;0.00;0.00;;;;;28.66;34.88;100387.50;5114543;27;45379;-72
2022/10/21 12:36:24;;;;;;;;;0.75;0.75;;;;;28.12;35.69;100399.78;5114467;27;45319;-71
2022/10/21 12:38:51;;;;;;;;;2.50;0.50;;;;;27.73;36.71;100386.28;5114083;27;45942;-72
2022/10/21 12:41:22;;;;;;;;;1.00;1.00;;;;;27.60;37.01;100407.28;5113643;27;45395;-70
2022/10/21 12:44:00;;;;;;;;;3.25;1.00;;;;;27.26;38.06;100403.13;5117606;27;45526;-71
2022/10/21 12:46:32;;;;;;;;;1.00;1.00;;;;;26.59;38.06;100400.19;5125032;27;45508;-71
2022/10/21 12:49:17;;;;;;;;;1.00;1.00;;;;;25.78;39.57;100402.44;5138029;27;46231;-71
2022/10/21 12:51:49;;;;;;;;;0.50;0.50;;;;;25.04;41.57;100403.56;5137918;27;45428;-74
2022/10/21 12:54:19;;;;;;;;;3.00;2.00;;;;;24.49;42.82;100390.50;5120127;27;45462;-71
2022/10/21 12:56:48;;;;;;;;;1.00;1.00;;;;;24.49;43.35;100399.56;5117843;27;45549;-70
2022/10/21 12:59:31;;;;;;;;;0.75;0.75;;;;;24.11;43.91;100400.09;5137176;27;46682;-71
2022/10/21 13:02:19;;;;;;;;;3.00;1.50;;;;;23.80;44.19;100390.72;5118247;27;45372;-70
2022/10/21 13:04:48;;;;;;;;;1.25;0.75;;;;;23.52;45.61;100377.25;5118427;27;45257;-71
2022/10/21 13:07:13;;;;;;;;;0.50;0.50;;;;;23.51;45.55;100391.06;5130794;27;45546;-70
2022/10/21 13:09:51;;;;;;;;;0.75;0.50;;;;;23.63;46.26;100385.19;5117764;27;46154;-71
2022/10/21 13:12:22;;;;;;;;;2.75;0.75;;;;;23.54;45.06;100386.16;5117388;27;45251;-72
2022/10/21 13:14:55;;;;;;;;;0.75;0.75;;;;;23.29;45.51;100382.38;5117419;27;45488;-71
2022/10/21 13:17:20;;;;;;;;;3.25;1.50;;;;;23.02;46.16;100391.56;5129263;27;45515;-70
2022/10/21 13:19:48;;;;;;;;;3.75;1.25;;;;;22.94;46.50;100371.50;5115551;27;47183;-71
2022/10/21 13:22:18;;;;;;;;;0.00;0.00;;;;;22.99;46.30;100380.09;5118065;27;46519;-71
2022/10/21 13:24:45;;;;;;;;;2.50;0.50;;;;;22.87;46.41;100370.44;5130306;27;45585;-72
2022/10/21 13:27:32;;;;;;;;;0.00;0.00;;;;;23.11;46.58;100381.56;5126174;27;45546;-70
2022/10/21 13:29:59;;;;;;;;;2.25;1.00;;;;;23.24;45.83;100378.38;5137580;27;45396;-71
2022/10/21 13:32:28;;;;;;;;;1.75;1.50;;;;;23.35;45.89;100375.38;5118113;27;45522;-72
2022/10/21 13:34:59;;;;;;;;;1.50;0.50;;;;;23.84;45.27;100379.28;5124080;27;45283;-72
2022/10/21 13:37:33;;;;;;;;;2.00;1.50;;;;;24.34;44.62;100379.31;5116717;27;45397;-73
2022/10/21 13:40:03;;;;;;;;;1.75;1.00;;;;;24.41;44.46;100372.13;5124266;27;46078;-71
2022/10/21 13:42:35;;;;;;;;;1.75;0.75;;;;;24.71;44.24;100367.88;5131645;27;45784;-71
2022/10/21 13:45:06;;;;;;;;;2.25;1.00;;;;;24.72;43.61;100360.53;5125691;27;45407;-70
2022/10/21 13:47:34;;;;;;;;;3.00;1.00;;;;;24.86;43.50;100368.91;5137191;27;45443;-71
2022/10/21 13:50:08;;;;;;;;;1.75;0.75;;;;;24.85;44.03;100367.19;5136880;27;45524;-71
2022/10/21 13:52:34;;;;;;;;;2.75;1.25;;;;;24.99;43.24;100370.31;5121666;27;45371;-70
2022/10/21 13:55:00;;;;;;;;;1.75;0.75;;;;;24.89;43.58;100364.97;5125133;27;45978;-72
2022/10/21 13:57:32;;;;;;;;;3.50;1.00;;;;;24.78;43.94;100368.91;5121099;27;45466;-73
2022/10/21 14:00:17;;;;;;;;;2.25;1.00;;;;;24.68;44.31;100361.88;5137016;27;46552;-70
2022/10/21 14:02:59;;;;;;;;;3.25;0.50;;;;;24.41;43.92;100365.81;5136567;27;45355;-70
2022/10/21 14:05:45;;;;;;;;;0.00;0.00;;;;;24.10;44.59;100341.72;5123134;27;45268;-72
2022/10/21 14:08:23;;;;;;;;;2.75;0.75;;;;;24.19;45.15;100356.28;5120798;27;46510;-77
2022/10/21 14:10:48;;;;;;;;;2.00;2.00;;;;;24.19;45.18;100366.38;5129385;27;45427;-75
2022/10/21 14:13:15;;;;;;;;;1.00;0.25;;;;;23.84;46.14;100368.31;5120429;27;46894;-75
2022/10/21 14:15:44;;;;;;;;;1.50;1.50;;;;;24.03;46.08;100370.81;5115895;27;45366;-77
2022/10/21 14:18:26;;;;;;;;;3.25;0.75;;;;;23.92;46.26;100367.50;5131459;27;45315;-73
2022/10/21 14:20:52;;;;;;;;;1.25;1.25;;;;;24.09;46.21;100370.13;5121387;27;45602;-76
2022/10/21 14:23:20;;;;;;;;;2.75;0.75;;;;;24.27;45.48;100363.69;5124618;27;45396;-73
2022/10/21 14:25:50;;;;;;;;;0.25;0.00;;;;;24.21;45.25;100356.16;5117041;27;45344;-70
2022/10/21 14:28:17;;;;;;;;;2.00;1.00;;;;;24.08;46.03;100360.19;5119092;27;45510;-75
2022/10/21 14:30:43;;;;;;;;;2.00;0.50;;;;;24.06;45.81;100353.19;5107161;27;46169;-73
2022/10/21 14:33:14;;;;;;;;;1.50;0.75;;;;;23.99;46.04;100363.06;5134674;27;45455;-70
2022/10/21 14:35:41;;;;;;;;;1.50;0.00;;;;;23.81;46.42;100359.59;5124798;27;45458;-70
2022/10/21 14:38:35;;;;;;;;;3.00;1.25;;;;;23.68;46.78;100360.91;5117005;27;45507;-70
2022/10/21 14:41:06;;;;;;;;;2.00;2.00;;;;;23.63;46.76;100371.50;5123646;27;45340;-70
2022/10/21 14:43:36;;;;;;;;;1.00;1.00;;;;;23.52;47.21;100368.16;5137386;27;45388;-71
2022/10/21 14:46:05;;;;;;;;;1.25;0.75;;;;;23.81;47.13;100373.28;5137017;27;45519;-68
2022/10/21 14:48:33;;;;;;;;;0.75;0.75;;;;;24.15;46.37;100371.38;5124740;27;45422;-70
2022/10/21 14:51:02;;;;;;;;;1.50;0.00;;;;;24.27;45.59;100344.53;5117033;27;45431;-71
2022/10/21 14:53:32;;;;;;;;;1.00;1.00;;;;;24.54;45.34;100376.25;5121815;27;45558;-71
2022/10/21 14:56:00;;;;;;;;;2.75;1.00;;;;;24.82;45.26;100358.47;5121673;27;45469;-70
2022/10/21 14:58:36;;;;;;;;;0.00;0.00;;;;;25.04;44.07;100365.16;5121968;27;45443;-69
